Time;durP1;ratioP1;P1;durP2;ratioP2;P2;SDS_P1;SDS_P2;PMS_P1;PMS_P2;Temp;Humidity;BMP_temperature;BMP_pressure;BME280_temperature;BME280_humidity;BME280_pressure;Samples;Min_cycle;Max_cycle;Signal;HPM_P1;HPM_P2
2023/02/21 02:13:48;;;;;;;26.00;24.50;;;;;;;7.75;100.00;101028.94;5032545;28;20100;-77
2023/02/21 02:16:24;;;;;;;28.85;27.15;;;;;;;7.94;100.00;101022.31;5029664;28;20045;-77
2023/02/21 02:19:10;;;;;;;25.13;23.58;;;;;;;7.93;100.00;101037.34;5032292;28;20532;-77
2023/02/21 02:22:07;;;;;;;22.80;21.50;;;;;;;7.91;100.00;101027.94;5032608;28;20053;-77
2023/02/21 02:24:58;;;;;;;23.08;21.63;;;;;;;7.92;100.00;101021.66;5031325;28;20053;-77
2023/02/21 02:28:03;;;;;;;26.63;24.95;;;;;;;7.98;100.00;101018.28;5029743;28;20076;-76
2023/02/21 02:31:11;;;;;;;33.50;31.70;;;;;;;8.11;100.00;101010.53;4974571;28;20116;-77
2023/02/21 02:34:13;;;;;;;32.50;30.70;;;;;;;7.92;100.00;101024.28;5029652;28;20045;-77
2023/02/21 02:36:44;;;;;;;28.92;27.27;;;;;;;8.03;100.00;101026.50;5032054;28;20136;-77
2023/02/21 02:39:23;;;;;;;24.92;23.23;;;;;;;7.94;100.00;101025.75;5032033;28;20049;-77
2023/02/21 02:42:01;;;;;;;24.90;23.15;;;;;;;7.94;100.00;101030.22;5027594;28;20502;-77
2023/02/21 02:44:36;;;;;;;27.98;25.77;;;;;;;8.09;100.00;101027.59;5031599;28;20419;-77
2023/02/21 02:47:06;;;;;;;25.27;23.00;;;;;;;7.96;100.00;101052.03;5031686;28;20494;-77
2023/02/21 02:49:38;;;;;;;29.13;26.80;;;;;;;7.99;100.00;101039.28;5031573;28;20087;-77
2023/02/21 02:52:09;;;;;;;26.00;23.60;;;;;;;7.97;100.00;101041.28;5031612;28;20049;-76
2023/02/21 02:54:36;;;;;;;29.38;27.10;;;;;;;8.07;100.00;101037.53;5031723;28;20053;-77
2023/02/21 02:57:09;;;;;;;29.98;27.80;;;;;;;8.32;100.00;101032.78;5030287;28;20564;-77
2023/02/21 02:59:38;;;;;;;29.10;26.35;;;;;;;7.96;100.00;101042.28;5031755;28;20522;-77
2023/02/21 03:02:36;;;;;;;27.42;25.55;;;;;;;7.86;100.00;101046.16;5031265;28;20057;-77
2023/02/21 03:05:23;;;;;;;26.48;24.38;;;;;;;7.98;100.00;101047.38;5025894;28;20049;-77
2023/02/21 03:07:59;;;;;;;26.15;24.50;;;;;;;7.88;100.00;101044.19;5030880;28;20494;-76
2023/02/21 03:10:37;;;;;;;25.95;24.02;;;;;;;7.92;100.00;101033.03;5031623;28;20100;-77
2023/02/21 03:13:10;;;;;;;28.45;26.65;;;;;;;8.03;100.00;101031.78;5031065;28;20057;-77
2023/02/21 03:15:44;;;;;;;29.10;27.23;;;;;;;7.67;100.00;101015.78;5031254;28;20144;-77
2023/02/21 03:18:17;;;;;;;22.48;20.88;;;;;;;7.88;100.00;101012.44;5031141;28;20045;-76
2023/02/21 03:20:46;;;;;;;33.45;31.52;;;;;;;7.74;100.00;101024.63;5031154;28;20052;-77
2023/02/21 03:23:18;;;;;;;27.27;25.67;;;;;;;7.54;100.00;101009.28;5026676;28;20398;-77
2023/02/21 03:25:47;;;;;;;28.67;26.98;;;;;;;7.56;100.00;100996.72;5031065;28;20053;-77
2023/02/21 03:28:15;;;;;;;29.73;27.67;;;;;;;7.54;100.00;101004.00;5031829;28;20054;-77
2023/02/21 03:30:42;;;;;;;24.70;23.17;;;;;;;7.54;100.00;100995.25;5031126;28;20073;-77
2023/02/21 03:33:09;;;;;;;25.40;23.73;;;;;;;7.56;100.00;100999.38;5030702;28;20107;-77
2023/02/21 03:35:35;;;;;;;23.05;21.45;;;;;;;7.65;100.00;101004.56;5031358;28;20049;-77
2023/02/21 03:38:02;;;;;;;21.00;19.40;;;;;;;7.31;100.00;101011.13;5030198;28;20127;-77
2023/02/21 03:40:32;;;;;;;24.88;23.20;;;;;;;7.61;100.00;101009.38;5031248;28;20111;-77
2023/02/21 03:43:01;;;;;;;24.35;22.85;;;;;;;7.70;100.00;101010.94;5029628;28;20065;-77
2023/02/21 03:45:28;;;;;;;23.00;21.48;;;;;;;7.63;100.00;101011.88;5030726;28;20107;-77
2023/02/21 03:47:55;;;;;;;27.30;25.50;;;;;;;7.38;100.00;101017.34;5030204;28;20046;-77
2023/02/21 03:50:21;;;;;;;25.17;23.52;;;;;;;7.23;100.00;101019.94;5030427;28;20461;-77
2023/02/21 03:52:48;;;;;;;25.45;23.77;;;;;;;7.65;100.00;101020.41;5031330;28;20095;-77
2023/02/21 03:55:15;;;;;;;23.15;21.85;;;;;;;7.43;100.00;101015.00;5031301;28;20111;-77
2023/02/21 03:57:43;;;;;;;22.00;20.60;;;;;;;7.47;100.00;101010.97;5030552;28;20107;-77
2023/02/21 04:00:11;;;;;;;20.88;19.38;;;;;;;7.20;100.00;101011.53;5030787;28;20143;-77
2023/02/21 04:02:38;;;;;;;20.15;18.85;;;;;;;7.43;100.00;101001.78;5030750;28;20061;-77
2023/02/21 04:05:06;;;;;;;20.75;19.45;;;;;;;7.39;100.00;101004.97;5030881;28;20041;-77
2023/02/21 04:07:33;;;;;;;22.33;20.92;;;;;;;7.51;100.00;101014.13;5029956;28;20534;-77
2023/02/21 04:09:59;;;;;;;22.55;21.15;;;;;;;7.13;100.00;101006.13;5030723;28;20119;-77
2023/02/21 04:12:26;;;;;;;22.52;21.23;;;;;;;6.80;100.00;101003.69;5030444;28;20045;-76
2023/02/21 04:14:55;;;;;;;20.30;18.90;;;;;;;6.92;100.00;100995.38;5029671;28;20049;-76
2023/02/21 04:17:22;;;;;;;21.35;20.05;;;;;;;6.80;100.00;101000.25;5030895;28;20052;-77
2023/02/21 04:19:48;;;;;;;23.15;21.60;;;;;;;6.72;100.00;100990.56;5030524;28;20046;-77
2023/02/21 04:22:15;;;;;;;22.60;21.15;;;;;;;6.82;100.00;101001.72;5030339;28;20056;-77
2023/02/21 04:24:42;;;;;;;20.55;19.15;;;;;;;6.74;100.00;100993.03;5032574;28;20045;-77
2023/02/21 04:27:09;;;;;;;20.15;18.65;;;;;;;6.80;100.00;100990.50;5034594;28;20119;-77
2023/02/21 04:29:36;;;;;;;21.15;19.73;;;;;;;6.92;100.00;100992.75;5034370;28;20049;-77
2023/02/21 04:32:04;;;;;;;22.40;20.83;;;;;;;6.69;100.00;100985.63;5034047;28;20476;-77
2023/02/21 04:34:31;;;;;;;20.25;18.75;;;;;;;6.62;100.00;100989.94;5035172;28;20117;-76
2023/02/21 04:36:57;;;;;;;22.15;20.50;;;;;;;6.83;100.00;100982.22;5034065;28;20053;-76
2023/02/21 04:39:24;;;;;;;21.75;20.35;;;;;;;6.54;100.00;100974.19;5033944;28;20049;-77
2023/02/21 04:41:51;;;;;;;20.17;18.85;;;;;;;6.77;100.00;100984.75;5033855;28;20053;-77
2023/02/21 04:44:18;;;;;;;45.88;43.35;;;;;;;6.28;100.00;100969.16;5034032;28;20127;-77
2023/02/21 04:46:45;;;;;;;41.08;38.85;;;;;;;6.25;100.00;100969.50;5034041;28;20049;-77
2023/02/21 04:49:13;;;;;;;42.85;40.45;;;;;;;6.10;100.00;100967.59;5034530;28;20119;-76
2023/02/21 04:51:40;;;;;;;42.38;40.17;;;;;;;6.15;100.00;100959.19;5033335;28;20045;-77
2023/02/21 04:54:07;;;;;;;45.15;42.25;;;;;;;6.20;100.00;100956.81;5033902;28;20494;-76
2023/02/21 04:56:34;;;;;;;36.75;34.17;;;;;;;6.05;100.00;100948.84;5034361;28;20124;-77
2023/02/21 04:59:01;;;;;;;36.45;33.90;;;;;;;5.73;100.00;100954.97;5034225;28;20061;-76
2023/02/21 05:01:30;;;;;;;39.88;37.35;;;;;;;5.76;100.00;100952.00;5033290;28;20485;-77
2023/02/21 05:03:57;;;;;;;33.97;31.52;;;;;;;5.69;100.00;100943.13;5033720;28;20054;-76
2023/02/21 05:06:27;;;;;;;30.48;28.38;;;;;;;5.57;100.00;100947.94;5033426;28;20049;-76
2023/02/21 05:08:54;;;;;;;22.05;20.13;;;;;;;5.54;100.00;100937.72;5025516;28;20106;-77
2023/02/21 05:11:22;;;;;;;23.70;21.65;;;;;;;5.44;100.00;100934.44;5029040;28;20041;-77
2023/02/21 05:13:49;;;;;;;22.77;20.33;;;;;;;5.52;100.00;100939.69;5033951;28;20115;-76
2023/02/21 05:16:17;;;;;;;24.33;21.77;;;;;;;5.23;100.00;100940.22;5028621;28;20053;-76
2023/02/21 05:18:45;;;;;;;30.58;20.67;;;;;;;5.47;100.00;100942.81;5032331;28;20104;-77
2023/02/21 05:21:13;;;;;;;26.85;21.05;;;;;;;5.69;100.00;100951.88;5033365;28;20499;-76
2023/02/21 05:23:54;;;;;;;25.95;20.35;;;;;;;5.69;100.00;100943.13;5033386;28;20465;-77
2023/02/21 05:26:23;;;;;;;28.42;20.75;;;;;;;5.68;100.00;100942.28;5033016;28;20045;-76
2023/02/21 05:28:50;;;;;;;30.10;22.95;;;;;;;5.36;100.00;100940.56;5033171;28;20049;-77
2023/02/21 05:31:17;;;;;;;30.27;23.70;;;;;;;5.28;100.00;100943.19;5028569;28;20495;-77
2023/02/21 05:33:43;;;;;;;32.83;21.88;;;;;;;5.64;100.00;100938.34;5031957;28;20107;-77
2023/02/21 05:36:10;;;;;;;26.63;20.92;;;;;;;6.03;100.00;100934.16;5031424;28;20049;-77
2023/02/21 05:38:46;;;;;;;23.60;19.67;;;;;;;6.58;100.00;100933.22;5027175;28;20050;-77
2023/02/21 05:41:14;;;;;;;22.90;20.48;;;;;;;6.45;100.00;100948.81;5031125;28;20053;-77
2023/02/21 05:43:44;;;;;;;24.13;20.27;;;;;;;6.63;100.00;100944.09;5034763;28;20042;-77
2023/02/21 05:46:18;;;;;;;21.88;19.67;;;;;;;6.84;100.00;100956.66;5026942;28;20128;-76
2023/02/21 05:48:45;;;;;;;21.88;19.90;;;;;;;7.03;100.00;100940.34;5028748;28;20567;-77
2023/02/21 05:51:12;;;;;;;21.88;20.27;;;;;;;7.33;100.00;100951.00;5032743;28;20560;-77
2023/02/21 05:53:39;;;;;;;20.30;18.52;;;;;;;7.56;100.00;100950.94;5032589;28;20107;-77
2023/02/21 05:56:07;;;;;;;19.00;17.30;;;;;;;7.64;100.00;100956.16;5033147;28;20053;-77
2023/02/21 05:58:34;;;;;;;20.63;18.90;;;;;;;7.54;100.00;100953.78;5027893;28;20228;-77
2023/02/21 06:01:03;;;;;;;21.55;19.67;;;;;;;7.62;100.00;100946.75;5027559;28;20049;-77
2023/02/21 06:03:31;;;;;;;22.27;20.00;;;;;;;7.89;100.00;100950.59;5030165;28;20050;-77
2023/02/21 06:05:59;;;;;;;22.30;20.20;;;;;;;7.99;100.00;100954.63;5027331;28;20053;-77
2023/02/21 06:08:26;;;;;;;23.58;19.30;;;;;;;8.06;100.00;100949.41;5030836;28;20045;-77
2023/02/21 06:10:54;;;;;;;29.83;19.95;;;;;;;8.36;100.00;100959.97;5032347;28;20136;-77
2023/02/21 06:13:24;;;;;;;29.83;20.30;;;;;;;8.40;100.00;100961.25;5032907;28;20107;-78
2023/02/21 06:15:55;;;;;;;32.83;21.85;;;;;;;8.56;100.00;100958.38;5031842;28;20049;-77
2023/02/21 06:18:35;;;;;;;27.33;20.25;;;;;;;8.92;100.00;100949.59;5028373;28;20060;-77
2023/02/21 06:21:01;;;;;;;28.73;19.52;;;;;;;9.23;100.00;100941.34;5031978;28;20127;-77
2023/02/21 06:23:28;;;;;;;29.67;21.30;;;;;;;9.51;100.00;100938.69;5032573;28;20045;-77
2023/02/21 06:25:56;;;;;;;31.33;20.60;;;;;;;9.69;100.00;100942.69;5028370;28;20103;-77
2023/02/21 06:31:17;;;;;;;30.10;21.27;;;;;;;10.18;99.75;100939.06;5030047;28;20136;-77
2023/02/21 06:33:44;;;;;;;34.75;29.30;;;;;;;10.42;97.50;100943.06;5031570;28;20046;-77
2023/02/21 06:36:14;;;;;;;35.33;29.73;;;;;;;10.29;99.95;100934.03;5032570;28;20054;-77
2023/02/21 06:38:45;;;;;;;37.60;33.58;;;;;;;10.58;95.38;100939.22;5031921;28;20048;-77
2023/02/21 06:41:23;;;;;;;29.30;21.05;;;;;;;10.41;95.90;100942.25;5032959;28;20143;-76
2023/02/21 06:44:03;;;;;;;34.45;21.63;;;;;;;10.17;97.47;100938.25;5024851;28;20052;-77
2023/02/21 06:46:36;;;;;;;30.83;23.98;;;;;;;10.65;92.57;100932.09;5026404;28;20146;-77
2023/02/21 06:49:05;;;;;;;26.17;23.30;;;;;;;10.64;95.16;100933.13;5030795;28;20049;-77
2023/02/21 06:51:40;;;;;;;24.52;22.38;;;;;;;10.45;97.44;100922.25;5025395;28;20099;-77
2023/02/21 06:54:08;;;;;;;24.42;20.15;;;;;;;10.82;93.32;100932.53;5031877;28;20052;-77
2023/02/21 06:56:43;;;;;;;22.60;20.40;;;;;;;10.52;98.34;100924.91;5030832;28;20045;-77
2023/02/21 06:59:11;;;;;;;38.42;35.75;;;;;;;10.85;95.41;100927.63;5028168;28;20571;-77
2023/02/21 07:01:38;;;;;;;22.00;19.98;;;;;;;10.78;95.30;100924.97;5029305;28;20430;-78
2023/02/21 07:04:05;;;;;;;21.23;18.98;;;;;;;10.76;98.38;100927.00;5013173;28;20058;-77
2023/02/21 07:06:32;;;;;;;20.50;18.80;;;;;;;10.52;99.80;100932.88;5011728;28;20062;-77
2023/02/21 07:08:59;;;;;;;21.05;19.05;;;;;;;10.75;96.67;100925.38;5010453;28;20406;-77
2023/02/21 07:11:26;;;;;;;21.90;19.90;;;;;;;10.69;97.63;100931.50;5010047;28;20045;-77
2023/02/21 07:13:55;;;;;;;22.75;20.50;;;;;;;11.01;97.04;100937.06;5011029;28;20046;-77
2023/02/21 07:16:23;;;;;;;21.40;19.48;;;;;;;10.87;97.78;100925.59;5009683;28;20054;-77
2023/02/21 07:18:50;;;;;;;21.60;19.60;;;;;;;10.95;97.69;100935.19;5010660;28;20056;-77
2023/02/21 07:21:19;;;;;;;25.80;20.92;;;;;;;10.49;100.00;100933.28;5009727;28;20422;-78
2023/02/21 07:23:47;;;;;;;21.88;19.77;;;;;;;10.64;100.00;100923.31;5009568;28;20199;-77
2023/02/21 07:26:15;;;;;;;23.98;21.77;;;;;;;11.48;95.31;100935.22;5009915;28;20499;-77
2023/02/21 07:28:42;;;;;;;27.15;23.52;;;;;;;10.66;100.00;100933.75;5009448;28;20045;-77
2023/02/21 07:31:09;;;;;;;24.88;22.77;;;;;;;11.18;98.52;100926.84;5009445;28;20048;-78
2023/02/21 07:33:37;;;;;;;23.58;21.27;;;;;;;11.83;96.44;100922.47;5009493;28;20141;-78
2023/02/21 07:36:05;;;;;;;24.63;22.38;;;;;;;11.99;92.75;100918.56;5008766;28;20581;-78
2023/02/21 07:38:32;;;;;;;24.80;22.65;;;;;;;12.17;92.80;100907.22;5008216;28;20487;-78
2023/02/21 07:41:01;;;;;;;22.58;20.38;;;;;;;11.97;93.30;100909.16;5007439;28;20100;-77
2023/02/21 07:43:29;;;;;;;23.08;20.88;;;;;;;12.70;89.54;100920.25;5009949;28;20503;-79
2023/02/21 07:45:57;;;;;;;24.40;22.40;;;;;;;13.14;89.69;100910.50;5010009;28;20057;-77
2023/02/21 07:48:24;;;;;;;23.00;20.90;;;;;;;12.56;89.54;100903.53;5009546;28;20104;-77
2023/02/21 07:50:52;;;;;;;21.58;19.70;;;;;;;13.00;88.50;100912.44;5009597;28;20124;-77
2023/02/21 07:53:19;;;;;;;22.13;20.23;;;;;;;13.12;87.54;100909.09;5009359;28;20507;-78
2023/02/21 07:55:46;;;;;;;22.48;20.45;;;;;;;12.82;87.43;100899.06;5009893;28;20041;-77
2023/02/21 07:58:13;;;;;;;22.02;20.13;;;;;;;13.68;83.69;100900.19;5006829;28;20050;-78
2023/02/21 08:00:39;;;;;;;22.20;20.20;;;;;;;13.45;85.21;100900.81;5011158;28;20064;-77
2023/02/21 08:03:06;;;;;;;21.40;19.40;;;;;;;13.73;81.41;100900.31;4981407;28;1179222;-77
2023/02/21 08:05:33;;;;;;;21.58;19.50;;;;;;;13.08;84.64;100890.03;5033153;28;20053;-78
2023/02/21 08:08:01;;;;;;;23.33;21.25;;;;;;;13.13;83.39;100881.38;5033106;28;20107;-78
2023/02/21 08:10:29;;;;;;;24.00;21.98;;;;;;;13.20;83.12;100893.63;5033025;28;20107;-77
2023/02/21 08:12:55;;;;;;;24.27;22.17;;;;;;;13.19;81.49;100902.69;5033161;28;20137;-78
2023/02/21 08:15:22;;;;;;;22.55;20.55;;;;;;;13.07;81.64;100891.91;5034093;28;20052;-77
2023/02/21 08:17:50;;;;;;;22.38;20.38;;;;;;;13.32;78.14;100895.63;5032587;28;20124;-78
2023/02/21 08:20:17;;;;;;;21.20;19.48;;;;;;;13.12;80.60;100893.91;5032417;28;20061;-78
2023/02/21 08:22:44;;;;;;;23.27;21.38;;;;;;;13.31;80.47;100892.13;5028508;28;20054;-78
2023/02/21 08:25:15;;;;;;;23.15;21.35;;;;;;;13.29;80.96;100876.34;5033043;28;20045;-78
2023/02/21 08:27:43;;;;;;;22.25;20.45;;;;;;;13.86;79.09;100878.84;5032233;28;20097;-77
2023/02/21 08:30:14;;;;;;;23.65;21.65;;;;;;;13.52;80.70;100874.88;5031317;28;20506;-78
2023/02/21 08:32:41;;;;;;;24.40;22.52;;;;;;;13.91;78.19;100878.13;5031895;28;20077;-78
2023/02/21 08:35:08;;;;;;;24.83;22.83;;;;;;;13.66;78.48;100868.38;5033601;28;20046;-78
2023/02/21 08:37:36;;;;;;;23.77;22.00;;;;;;;13.83;78.53;100867.75;5031091;28;20053;-78
2023/02/21 08:40:04;;;;;;;27.42;25.17;;;;;;;13.65;78.11;100858.75;5031851;28;20479;-77
2023/02/21 08:42:32;;;;;;;23.33;21.55;;;;;;;13.91;77.20;100860.25;5032580;28;20146;-77
2023/02/21 08:44:59;;;;;;;23.15;21.45;;;;;;;14.37;76.40;100864.19;5033109;28;20111;-77
2023/02/21 08:47:26;;;;;;;23.63;21.73;;;;;;;14.72;71.43;100850.13;5031289;28;20522;-78
2023/02/21 08:49:53;;;;;;;24.35;22.45;;;;;;;14.75;72.17;100852.34;5033054;28;20151;-78
2023/02/21 08:52:21;;;;;;;24.48;22.60;;;;;;;15.13;72.08;100845.75;5029859;28;20514;-78
2023/02/21 08:54:48;;;;;;;25.10;22.80;;;;;;;14.97;71.40;100833.06;5032626;28;20129;-77
2023/02/21 08:57:15;;;;;;;24.77;22.98;;;;;;;15.25;72.39;100845.72;5031959;28;20057;-78
2023/02/21 08:59:44;;;;;;;23.63;21.65;;;;;;;14.36;74.09;100824.34;5013020;28;20045;-77
2023/02/21 09:02:16;;;;;;;23.98;22.08;;;;;;;13.94;76.00;100822.44;5031234;28;20051;-78
2023/02/21 09:04:43;;;;;;;25.23;22.63;;;;;;;15.01;72.72;100834.25;5030953;28;20045;-78
2023/02/21 09:07:12;;;;;;;23.15;21.42;;;;;;;15.11;71.00;100824.56;5030542;28;20473;-78
2023/02/21 09:09:39;;;;;;;23.27;21.40;;;;;;;14.78;72.12;100835.03;5031333;28;20124;-78
2023/02/21 09:12:08;;;;;;;25.25;23.35;;;;;;;14.53;74.37;100851.25;5028684;28;20103;-78
2023/02/21 09:14:35;;;;;;;24.20;22.00;;;;;;;14.93;72.22;100834.59;5032426;28;20124;-77
2023/02/21 09:17:05;;;;;;;26.98;24.77;;;;;;;15.17;72.56;100846.91;5032930;28;20128;-78
2023/02/21 09:19:32;;;;;;;26.25;24.25;;;;;;;15.93;69.90;100837.03;5024905;28;20049;-78
2023/02/21 09:21:59;;;;;;;26.40;24.38;;;;;;;14.72;72.56;100830.59;5030757;28;20053;-78
2023/02/21 09:24:27;;;;;;;25.48;23.52;;;;;;;15.74;67.55;100827.56;5030103;28;20494;-78
2023/02/21 09:26:57;;;;;;;24.40;22.60;;;;;;;14.79;70.75;100818.75;5028410;28;20053;-77
2023/02/21 09:29:25;;;;;;;27.42;25.15;;;;;;;15.04;70.71;100825.75;5031021;28;20475;-78
2023/02/21 09:31:52;;;;;;;24.27;22.48;;;;;;;14.83;71.13;100821.78;5032916;28;20050;-77
2023/02/21 09:34:21;;;;;;;23.63;21.73;;;;;;;15.24;69.16;100812.00;5032385;28;20076;-78
2023/02/21 09:36:49;;;;;;;22.85;20.85;;;;;;;14.76;70.40;100813.84;5032568;28;20059;-78
2023/02/21 09:39:16;;;;;;;22.20;20.38;;;;;;;14.89;69.68;100823.53;5031821;28;20072;-77
2023/02/21 09:41:44;;;;;;;25.77;23.88;;;;;;;15.41;68.48;100820.94;5032458;28;20107;-78
2023/02/21 09:44:19;;;;;;;24.73;22.92;;;;;;;14.52;71.59;100817.53;5032155;28;20427;-78
2023/02/21 09:46:48;;;;;;;25.85;23.85;;;;;;;14.84;71.10;100792.13;5031252;28;20515;-77
2023/02/21 09:49:24;;;;;;;25.85;23.75;;;;;;;14.95;71.76;100795.88;5031708;28;20049;-77
2023/02/21 09:51:52;;;;;;;25.27;23.38;;;;;;;14.52;73.21;100812.19;5029538;28;20108;-77
2023/02/21 09:54:25;;;;;;;25.90;23.77;;;;;;;15.05;71.14;100795.28;5032148;28;20103;-78
2023/02/21 09:56:51;;;;;;;29.25;26.88;;;;;;;15.61;69.06;100780.38;5029457;28;20115;-78
2023/02/21 09:59:18;;;;;;;22.50;20.50;;;;;;;14.74;70.43;100770.53;5031731;28;20426;-78
2023/02/21 10:01:56;;;;;;;25.88;23.77;;;;;;;15.86;66.09;100771.28;5031653;28;20470;-78
2023/02/21 10:04:34;;;;;;;26.73;24.05;;;;;;;15.62;67.99;100768.66;5028563;28;20054;-78
2023/02/21 10:07:06;;;;;;;27.27;25.10;;;;;;;16.24;66.31;100766.03;5029286;28;20100;-78
2023/02/21 10:09:42;;;;;;;25.02;22.77;;;;;;;15.96;65.51;100763.41;5031890;28;20054;-77
2023/02/21 10:12:20;;;;;;;28.88;26.67;;;;;;;15.77;66.37;100771.66;5031581;28;20068;-78
2023/02/21 10:15:25;;;;;;;27.35;25.27;;;;;;;16.79;64.08;100729.66;5029058;28;20049;-78
2023/02/21 10:17:59;;;;;;;28.40;25.73;;;;;;;16.74;62.77;100756.41;5029125;28;20065;-78
2023/02/21 10:20:36;;;;;;;27.10;25.00;;;;;;;16.87;64.33;100752.59;5030619;28;20053;-78
2023/02/21 10:23:10;;;;;;;28.00;25.88;;;;;;;15.93;65.88;100769.25;5028779;28;20041;-78
2023/02/21 10:25:43;;;;;;;29.52;27.25;;;;;;;15.68;66.37;100765.06;5032326;28;20457;-78
2023/02/21 10:28:17;;;;;;;28.90;26.35;;;;;;;15.67;67.52;100757.22;5027267;28;20462;-78
2023/02/21 10:30:45;;;;;;;25.50;23.50;;;;;;;15.54;68.03;100758.31;5031246;28;20543;-78
2023/02/21 10:33:12;;;;;;;24.70;22.60;;;;;;;15.91;66.21;100750.72;5031776;28;20049;-78
2023/02/21 10:35:40;;;;;;;24.15;22.20;;;;;;;15.40;68.81;100736.38;5031869;28;20099;-77
2023/02/21 10:38:11;;;;;;;27.90;25.52;;;;;;;16.64;66.12;100740.13;5031731;28;20049;-77
2023/02/21 10:40:42;;;;;;;28.48;26.27;;;;;;;17.15;63.91;100733.63;5031100;28;20095;-78
2023/02/21 10:43:13;;;;;;;22.20;20.23;;;;;;;16.78;64.19;100746.81;5029895;28;20045;-78
2023/02/21 10:45:45;;;;;;;24.58;22.67;;;;;;;16.26;67.56;100750.56;5029858;28;20164;-78
2023/02/21 10:48:13;;;;;;;24.55;22.27;;;;;;;17.55;62.43;100735.22;5028100;28;20114;-78
2023/02/21 10:50:45;;;;;;;24.50;22.58;;;;;;;16.98;62.33;100716.00;5030064;28;20048;-78
2023/02/21 10:53:25;;;;;;;33.90;31.70;;;;;;;17.15;61.40;100730.16;5029876;28;20045;-78
2023/02/21 10:56:24;;;;;;;31.70;29.40;;;;;;;16.71;64.36;100720.16;5030436;28;20104;-78
2023/02/21 10:58:53;;;;;;;33.95;31.65;;;;;;;17.66;62.24;100721.88;5029113;28;20041;-78
2023/02/21 11:01:30;;;;;;;28.55;26.35;;;;;;;17.70;60.76;100718.44;5031155;28;20115;-78
2023/02/21 11:04:00;;;;;;;27.20;25.27;;;;;;;16.76;63.33;100710.56;5030883;28;20108;-78
2023/02/21 11:06:35;;;;;;;27.58;25.42;;;;;;;18.25;60.39;100708.50;5031196;28;20057;-78
2023/02/21 11:09:18;;;;;;;26.58;24.45;;;;;;;17.17;61.08;100707.38;5027422;28;20046;-78
2023/02/21 11:11:45;;;;;;;29.20;26.80;;;;;;;17.18;60.70;100697.44;5030521;28;20087;-78
2023/02/21 11:14:26;;;;;;;31.58;29.27;;;;;;;18.23;59.45;100694.50;5030450;28;20136;-78
2023/02/21 11:17:13;;;;;;;29.90;27.40;;;;;;;16.57;64.11;100684.00;5029902;28;20049;-78
2023/02/21 11:19:48;;;;;;;30.20;26.92;;;;;;;14.36;69.60;100694.22;5012124;28;20055;-78
2023/02/21 11:22:20;;;;;;;28.02;26.02;;;;;;;17.68;60.19;100680.28;5028504;28;20124;-78
2023/02/21 11:25:00;;;;;;;26.02;24.02;;;;;;;17.92;60.00;100678.13;5030640;28;20101;-78
2023/02/21 11:27:30;;;;;;;23.63;21.55;;;;;;;17.20;60.59;100673.88;5031029;28;20167;-78
2023/02/21 11:29:57;;;;;;;24.73;22.65;;;;;;;18.13;57.82;100676.41;5029577;28;20050;-78
2023/02/21 11:32:28;;;;;;;24.98;22.90;;;;;;;17.58;60.69;100675.63;5030276;28;20557;-78
2023/02/21 11:35:22;;;;;;;23.35;21.50;;;;;;;17.07;59.56;100642.84;5027112;28;20585;-78
2023/02/21 11:37:54;;;;;;;22.45;20.35;;;;;;;16.65;61.62;100664.03;5030530;28;20183;-78
2023/02/21 11:40:28;;;;;;;22.70;20.88;;;;;;;17.29;60.06;100652.75;5028828;28;20068;-78
2023/02/21 11:43:12;;;;;;;24.70;22.70;;;;;;;16.41;62.28;100648.13;5027292;28;20049;-78
2023/02/21 11:45:45;;;;;;;28.63;26.63;;;;;;;18.20;58.66;100639.38;5027440;28;20502;-78
2023/02/21 11:48:15;;;;;;;24.95;22.73;;;;;;;18.84;56.97;100648.38;5029445;28;20045;-77
2023/02/21 11:50:48;;;;;;;24.73;22.63;;;;;;;17.54;59.12;100634.22;5030162;28;20037;-78
2023/02/21 11:53:21;;;;;;;27.30;25.02;;;;;;;17.21;59.87;100637.91;5028618;28;20049;-78
2023/02/21 11:55:59;;;;;;;31.20;28.88;;;;;;;16.48;61.74;100621.16;5031745;28;20485;-78
2023/02/21 11:58:30;;;;;;;33.35;31.25;;;;;;;17.18;59.07;100624.97;5030394;28;20115;-77
2023/02/21 12:01:04;;;;;;;24.25;22.10;;;;;;;16.42;61.69;100612.22;5029256;28;20060;-78
2023/02/21 12:03:50;;;;;;;24.45;22.42;;;;;;;18.13;59.12;100617.28;5028815;28;20050;-78
2023/02/21 12:06:27;;;;;;;24.83;22.73;;;;;;;19.75;54.39;100628.16;5029657;28;20045;-78
2023/02/21 12:09:01;;;;;;;23.83;21.92;;;;;;;18.22;56.27;100582.69;5028992;28;20084;-78
2023/02/21 12:11:47;;;;;;;25.02;22.92;;;;;;;18.29;53.97;100604.75;5028800;28;20438;-78
2023/02/21 12:14:34;;;;;;;26.75;24.45;;;;;;;17.78;54.99;100633.94;5030276;28;20049;-78
2023/02/21 12:17:12;;;;;;;25.33;23.23;;;;;;;18.12;55.01;100614.84;5022452;28;20150;-78
2023/02/21 12:19:56;;;;;;;22.33;20.48;;;;;;;17.69;56.79;100604.00;5027291;28;20053;-78
2023/02/21 12:22:39;;;;;;;22.83;20.80;;;;;;;17.82;56.83;100616.22;5025590;28;20061;-78
2023/02/21 12:25:20;;;;;;;24.20;21.85;;;;;;;17.97;54.15;100604.78;5026918;28;20053;-77
2023/02/21 12:27:55;;;;;;;22.60;20.80;;;;;;;15.73;62.56;100606.34;5028388;28;20053;-78
2023/02/21 12:30:48;;;;;;;23.80;21.80;;;;;;;15.65;63.13;100606.72;5024556;28;20048;-78
2023/02/21 12:33:29;;;;;;;24.20;22.45;;;;;;;17.06;59.78;100609.03;5025543;28;20487;-78
2023/02/21 12:36:12;;;;;;;27.50;24.95;;;;;;;17.67;57.47;100608.00;5026360;28;20102;-78
2023/02/21 12:38:51;;;;;;;25.42;23.38;;;;;;;18.58;53.85;100597.13;5027747;28;20473;-78
2023/02/21 12:41:32;;;;;;;24.65;22.65;;;;;;;17.62;56.07;100584.63;5029260;28;20399;-77
2023/02/21 12:44:06;;;;;;;25.15;23.25;;;;;;;17.35;57.80;100593.50;5025207;28;20128;-78
2023/02/21 12:46:36;;;;;;;24.42;22.52;;;;;;;15.45;63.47;100581.22;5032872;28;20049;-77
2023/02/21 12:49:06;;;;;;;25.25;23.05;;;;;;;17.98;57.23;100587.63;5035332;28;20049;-77
2023/02/21 12:51:38;;;;;;;24.73;22.63;;;;;;;18.01;55.53;100574.47;5031322;28;20473;-78
2023/02/21 12:54:09;;;;;;;24.15;22.17;;;;;;;17.18;57.75;100587.41;5039165;28;20457;-78
2023/02/21 12:56:44;;;;;;;22.83;21.02;;;;;;;16.03;61.49;100582.72;5033432;28;20507;-77
2023/02/21 12:59:17;;;;;;;23.25;21.27;;;;;;;17.84;56.14;100574.63;5033030;28;20053;-77
2023/02/21 13:01:48;;;;;;;23.83;22.02;;;;;;;17.80;56.37;100559.28;5033582;28;20048;-78
2023/02/21 13:04:24;;;;;;;22.95;21.05;;;;;;;17.40;57.20;100564.03;5031470;28;20054;-78
2023/02/21 13:06:57;;;;;;;24.88;22.98;;;;;;;16.81;59.32;100557.78;5032794;28;20049;-77
2023/02/21 13:09:28;;;;;;;;;;;;;;;17.47;58.28;100561.13;5034066;28;20061;-78
2023/02/21 13:12:02;;;;;;;23.92;22.13;;;;;;;18.61;53.31;100556.25;5031852;28;19921;-77
2023/02/21 13:14:35;;;;;;;25.15;22.92;;;;;;;18.35;53.77;100549.13;5033331;28;20095;-78
2023/02/21 13:17:01;;;;;;;24.35;22.35;;;;;;;17.27;57.03;100537.59;5030985;28;20107;-77
2023/02/21 13:19:37;;;;;;;24.20;22.15;;;;;;;17.54;56.97;100523.31;5034682;28;20053;-78
2023/02/21 13:25:46;;;;;;;24.20;22.05;;;;;;;15.91;62.67;100532.97;4989702;28;20100;-78
2023/02/21 13:28:18;;;;;;;22.52;20.38;;;;;;;17.86;56.79;100531.38;4988133;28;20504;-78
2023/02/21 13:30:48;;;;;;;22.40;20.25;;;;;;;17.51;57.39;100530.00;4992323;28;20049;-77
2023/02/21 13:33:30;;;;;;;22.23;20.27;;;;;;;17.08;58.04;100530.97;4991637;28;20084;-78
2023/02/21 13:35:59;;;;;;;22.83;20.50;;;;;;;18.22;55.73;100537.78;4991343;28;20525;-77
2023/02/21 13:38:29;;;;;;;21.98;20.23;;;;;;;16.24;60.50;100538.28;4988797;28;20100;-77
2023/02/21 13:41:05;;;;;;;24.02;21.75;;;;;;;18.61;54.49;100541.97;4993605;28;20045;-77
2023/02/21 13:43:36;;;;;;;20.98;19.08;;;;;;;17.00;59.18;100531.41;4991717;28;20066;-78
2023/02/21 13:46:38;;;;;;;21.55;19.85;;;;;;;18.18;54.44;100542.03;4988858;28;20479;-78
2023/02/21 13:49:40;;;;;;;22.23;20.17;;;;;;;17.25;58.19;100537.06;5001167;28;20121;-78